sensor_id;sensor_type;location;lat;lon;timestamp;temperature;humidity
57624;SHT30;43448;52.264;20.644;2023-03-04T00:00:01;24.04;28.16
57624;SHT30;43448;52.264;20.644;2023-03-04T00:10:01;24.13;28.77
57624;SHT30;43448;52.264;20.644;2023-03-04T00:20:01;24.22;28.74
57624;SHT30;43448;52.264;20.644;2023-03-04T00:30:01;24.28;28.59
57624;SHT30;43448;52.264;20.644;2023-03-04T00:40:01;24.26;28.57
57624;SHT30;43448;52.264;20.644;2023-03-04T00:50:01;24.32;28.59
57624;SHT30;43448;52.264;20.644;2023-03-04T01:00:01;24.32;28.47
57624;SHT30;43448;52.264;20.644;2023-03-04T01:10:01;24.26;28.98
57624;SHT30;43448;52.264;20.644;2023-03-04T01:20:01;24.30;28.73
57624;SHT30;43448;52.264;20.644;2023-03-04T01:30:01;24.35;29.21
57624;SHT30;43448;52.264;20.644;2023-03-04T01:40:01;24.38;29.04
57624;SHT30;43448;52.264;20.644;2023-03-04T01:50:04;24.38;29.05
57624;SHT30;43448;52.264;20.644;2023-03-04T02:00:20;24.43;29.04
57624;SHT30;43448;52.264;20.644;2023-03-04T02:10:01;24.44;29.14
57624;SHT30;43448;52.264;20.644;2023-03-04T02:20:08;24.50;28.69
57624;SHT30;43448;52.264;20.644;2023-03-04T02:30:01;24.53;29.07
57624;SHT30;43448;52.264;20.644;2023-03-04T02:40:01;24.53;28.81
57624;SHT30;43448;52.264;20.644;2023-03-04T02:50:01;24.53;28.92
57624;SHT30;43448;52.264;20.644;2023-03-04T03:00:01;24.59;29.21
57624;SHT30;43448;52.264;20.644;2023-03-04T03:10:01;24.70;28.89
57624;SHT30;43448;52.264;20.644;2023-03-04T03:20:01;24.71;28.92
57624;SHT30;43448;52.264;20.644;2023-03-04T03:30:01;24.69;29.17
57624;SHT30;43448;52.264;20.644;2023-03-04T03:40:01;24.71;29.30
57624;SHT30;43448;52.264;20.644;2023-03-04T03:50:01;24.80;29.02
57624;SHT30;43448;52.264;20.644;2023-03-04T04:00:01;24.79;29.23
57624;SHT30;43448;52.264;20.644;2023-03-04T04:10:01;24.79;29.42
57624;SHT30;43448;52.264;20.644;2023-03-04T04:20:01;24.77;29.64
57624;SHT30;43448;52.264;20.644;2023-03-04T04:30:01;24.81;29.09
57624;SHT30;43448;52.264;20.644;2023-03-04T04:40:01;24.83;29.11
57624;SHT30;43448;52.264;20.644;2023-03-04T04:50:01;24.73;29.32
57624;SHT30;43448;52.264;20.644;2023-03-04T05:00:02;24.64;29.42
57624;SHT30;43448;52.264;20.644;2023-03-04T05:10:01;24.67;29.60
57624;SHT30;43448;52.264;20.644;2023-03-04T05:20:01;24.71;29.57
57624;SHT30;43448;52.264;20.644;2023-03-04T05:30:01;24.76;29.49
57624;SHT30;43448;52.264;20.644;2023-03-04T05:40:01;24.62;29.58
57624;SHT30;43448;52.264;20.644;2023-03-04T05:50:01;24.69;29.57
57624;SHT30;43448;52.264;20.644;2023-03-04T06:00:02;24.77;28.80
57624;SHT30;43448;52.264;20.644;2023-03-04T06:10:01;24.76;28.94
57624;SHT30;43448;52.264;20.644;2023-03-04T06:20:01;24.73;29.11
57624;SHT30;43448;52.264;20.644;2023-03-04T06:30:01;24.81;29.53
57624;SHT30;43448;52.264;20.644;2023-03-04T06:40:01;24.56;29.61
57624;SHT30;43448;52.264;20.644;2023-03-04T06:50:01;24.79;29.04
57624;SHT30;43448;52.264;20.644;2023-03-04T07:00:01;24.71;28.86
57624;SHT30;43448;52.264;20.644;2023-03-04T07:10:01;24.63;28.68
57624;SHT30;43448;52.264;20.644;2023-03-04T07:20:01;24.62;28.47
57624;SHT30;43448;52.264;20.644;2023-03-04T07:30:01;24.59;27.92
57624;SHT30;43448;52.264;20.644;2023-03-04T07:40:01;24.53;28.89
57624;SHT30;43448;52.264;20.644;2023-03-04T07:50:01;24.57;29.64
57624;SHT30;43448;52.264;20.644;2023-03-04T08:00:01;24.57;29.94
57624;SHT30;43448;52.264;20.644;2023-03-04T08:10:01;24.57;29.89
57624;SHT30;43448;52.264;20.644;2023-03-04T08:20:01;24.56;29.91
57624;SHT30;43448;52.264;20.644;2023-03-04T08:30:01;24.56;30.05
57624;SHT30;43448;52.264;20.644;2023-03-04T08:40:01;24.55;30.82
57624;SHT30;43448;52.264;20.644;2023-03-04T08:50:01;24.55;31.25
57624;SHT30;43448;52.264;20.644;2023-03-04T09:00:01;24.50;31.94
57624;SHT30;43448;52.264;20.644;2023-03-04T09:10:01;24.52;32.37
57624;SHT30;43448;52.264;20.644;2023-03-04T09:20:01;24.50;32.62
57624;SHT30;43448;52.264;20.644;2023-03-04T09:30:01;24.56;32.45
57624;SHT30;43448;52.264;20.644;2023-03-04T09:40:01;24.53;32.87
57624;SHT30;43448;52.264;20.644;2023-03-04T09:50:03;24.55;33.16
57624;SHT30;43448;52.264;20.644;2023-03-04T10:00:09;24.48;33.68
57624;SHT30;43448;52.264;20.644;2023-03-04T10:10:03;24.49;33.95
57624;SHT30;43448;52.264;20.644;2023-03-04T10:20:04;24.52;36.08
57624;SHT30;43448;52.264;20.644;2023-03-04T10:30:01;24.52;36.59
57624;SHT30;43448;52.264;20.644;2023-03-04T10:40:01;24.52;37.04
57624;SHT30;43448;52.264;20.644;2023-03-04T10:50:03;24.57;37.00
57624;SHT30;43448;52.264;20.644;2023-03-04T11:00:02;24.57;36.83
57624;SHT30;43448;52.264;20.644;2023-03-04T11:10:07;24.56;36.29
57624;SHT30;43448;52.264;20.644;2023-03-04T11:20:06;24.60;35.90
57624;SHT30;43448;52.264;20.644;2023-03-04T11:30:14;24.59;35.55
57624;SHT30;43448;52.264;20.644;2023-03-04T11:40:04;24.55;35.22
57624;SHT30;43448;52.264;20.644;2023-03-04T11:50:16;24.55;35.04
57624;SHT30;43448;52.264;20.644;2023-03-04T12:00:11;24.50;35.11
57624;SHT30;43448;52.264;20.644;2023-03-04T12:10:05;24.46;35.62
57624;SHT30;43448;52.264;20.644;2023-03-04T12:20:21;24.50;35.76
57624;SHT30;43448;52.264;20.644;2023-03-04T12:30:03;24.49;35.74
57624;SHT30;43448;52.264;20.644;2023-03-04T12:40:14;24.52;35.98
57624;SHT30;43448;52.264;20.644;2023-03-04T12:50:17;24.50;36.38
57624;SHT30;43448;52.264;20.644;2023-03-04T13:00:13;24.55;36.23
57624;SHT30;43448;52.264;20.644;2023-03-04T13:10:07;24.56;35.89
57624;SHT30;43448;52.264;20.644;2023-03-04T13:20:18;24.49;35.94
57624;SHT30;43448;52.264;20.644;2023-03-04T13:30:01;24.55;35.82
57624;SHT30;43448;52.264;20.644;2023-03-04T13:40:35;24.53;35.69
57624;SHT30;43448;52.264;20.644;2023-03-04T13:50:36;24.48;35.58
57624;SHT30;43448;52.264;20.644;2023-03-04T14:00:02;24.52;35.39
57624;SHT30;43448;52.264;20.644;2023-03-04T14:10:03;24.53;35.12
57624;SHT30;43448;52.264;20.644;2023-03-04T14:20:03;24.50;34.87
57624;SHT30;43448;52.264;20.644;2023-03-04T14:30:04;24.48;34.79
57624;SHT30;43448;52.264;20.644;2023-03-04T14:40:01;24.52;34.59
57624;SHT30;43448;52.264;20.644;2023-03-04T14:50:03;24.50;34.28
57624;SHT30;43448;52.264;20.644;2023-03-04T15:00:24;24.52;33.96
57624;SHT30;43448;52.264;20.644;2023-03-04T15:10:03;24.44;33.81
57624;SHT30;43448;52.264;20.644;2023-03-04T15:20:18;24.49;33.55
57624;SHT30;43448;52.264;20.644;2023-03-04T15:30:01;24.48;33.20
57624;SHT30;43448;52.264;20.644;2023-03-04T15:40:01;24.48;32.76
57624;SHT30;43448;52.264;20.644;2023-03-04T15:50:01;24.44;32.48
57624;SHT30;43448;52.264;20.644;2023-03-04T16:00:01;24.46;32.22
57624;SHT30;43448;52.264;20.644;2023-03-04T16:10:07;24.42;31.87
57624;SHT30;43448;52.264;20.644;2023-03-04T16:20:01;24.40;31.55
57624;SHT30;43448;52.264;20.644;2023-03-04T16:30:01;24.36;31.17
57624;SHT30;43448;52.264;20.644;2023-03-04T16:40:01;24.36;30.87
57624;SHT30;43448;52.264;20.644;2023-03-04T16:50:01;24.32;30.68
57624;SHT30;43448;52.264;20.644;2023-03-04T17:00:02;24.28;30.69
57624;SHT30;43448;52.264;20.644;2023-03-04T17:10:01;24.29;30.53
57624;SHT30;43448;52.264;20.644;2023-03-04T17:20:01;24.26;30.07
57624;SHT30;43448;52.264;20.644;2023-03-04T17:30:01;24.23;29.86
57624;SHT30;43448;52.264;20.644;2023-03-04T17:40:02;24.22;31.96
57624;SHT30;43448;52.264;20.644;2023-03-04T17:50:01;24.22;31.65
57624;SHT30;43448;52.264;20.644;2023-03-04T18:00:01;24.18;30.79
57624;SHT30;43448;52.264;20.644;2023-03-04T18:10:01;24.15;29.84
57624;SHT30;43448;52.264;20.644;2023-03-04T18:20:01;24.15;29.45
57624;SHT30;43448;52.264;20.644;2023-03-04T18:30:01;24.13;29.38
57624;SHT30;43448;52.264;20.644;2023-03-04T18:40:01;24.16;29.13
57624;SHT30;43448;52.264;20.644;2023-03-04T18:50:01;24.19;28.74
57624;SHT30;43448;52.264;20.644;2023-03-04T19:00:03;24.19;28.68
57624;SHT30;43448;52.264;20.644;2023-03-04T19:10:01;24.18;28.49
57624;SHT30;43448;52.264;20.644;2023-03-04T19:20:01;24.19;28.79
57624;SHT30;43448;52.264;20.644;2023-03-04T19:30:01;24.16;28.75
57624;SHT30;43448;52.264;20.644;2023-03-04T19:40:01;24.16;28.57
57624;SHT30;43448;52.264;20.644;2023-03-04T19:50:01;24.09;28.31
57624;SHT30;43448;52.264;20.644;2023-03-04T20:00:01;24.08;28.07
57624;SHT30;43448;52.264;20.644;2023-03-04T20:10:01;24.02;27.78
57624;SHT30;43448;52.264;20.644;2023-03-04T20:20:01;23.97;27.62
57624;SHT30;43448;52.264;20.644;2023-03-04T20:30:01;23.95;27.38
57624;SHT30;43448;52.264;20.644;2023-03-04T20:40:03;23.97;27.71
57624;SHT30;43448;52.264;20.644;2023-03-04T20:50:01;23.87;28.64
57624;SHT30;43448;52.264;20.644;2023-03-04T21:00:01;23.95;28.97
57624;SHT30;43448;52.264;20.644;2023-03-04T21:10:02;23.97;28.66
57624;SHT30;43448;52.264;20.644;2023-03-04T21:20:01;24.02;28.32
57624;SHT30;43448;52.264;20.644;2023-03-04T21:30:01;23.97;27.98
57624;SHT30;43448;52.264;20.644;2023-03-04T21:40:01;23.95;27.68
57624;SHT30;43448;52.264;20.644;2023-03-04T21:50:01;23.92;27.60
57624;SHT30;43448;52.264;20.644;2023-03-04T22:00:01;23.85;27.67
57624;SHT30;43448;52.264;20.644;2023-03-04T22:10:01;23.94;27.68
57624;SHT30;43448;52.264;20.644;2023-03-04T22:20:01;24.01;27.62
57624;SHT30;43448;52.264;20.644;2023-03-04T22:30:01;24.01;27.34
57624;SHT30;43448;52.264;20.644;2023-03-04T22:40:01;24.02;27.21
57624;SHT30;43448;52.264;20.644;2023-03-04T22:50:01;23.99;27.12
57624;SHT30;43448;52.264;20.644;2023-03-04T23:00:01;23.97;27.13
57624;SHT30;43448;52.264;20.644;2023-03-04T23:10:01;23.98;27.12
57624;SHT30;43448;52.264;20.644;2023-03-04T23:20:01;23.94;26.91
57624;SHT30;43448;52.264;20.644;2023-03-04T23:30:01;23.94;26.59
57624;SHT30;43448;52.264;20.644;2023-03-04T23:40:01;23.94;27.27
57624;SHT30;43448;52.264;20.644;2023-03-04T23:50:01;23.99;27.27
